createdAt,value
2023-09-15T00:01:41.102Z,3.08
2023-09-15T00:04:11.170Z,3.15
2023-09-15T00:06:39.121Z,3.15
2023-09-15T00:09:09.587Z,2.97
2023-09-15T00:11:43.863Z,3.72
2023-09-15T00:14:13.345Z,3.28
2023-09-15T00:16:42.952Z,3.40
2023-09-15T00:19:17.760Z,3.03
2023-09-15T00:21:49.042Z,2.80
2023-09-15T00:24:16.839Z,3.33
2023-09-15T00:26:44.840Z,3.50
2023-09-15T00:29:13.348Z,3.28
2023-09-15T00:31:41.553Z,3.45
2023-09-15T00:34:09.139Z,3.05
2023-09-15T00:36:37.160Z,3.83
2023-09-15T00:39:04.721Z,3.03
2023-09-15T00:41:32.234Z,3.87
2023-09-15T00:44:00.006Z,3.62
2023-09-15T00:46:27.951Z,3.42
2023-09-15T00:48:56.911Z,3.50
2023-09-15T00:51:26.185Z,3.60
2023-09-15T00:53:55.920Z,3.37
2023-09-15T00:56:23.667Z,3.15
2023-09-15T00:58:51.513Z,3.55
2023-09-15T01:01:19.461Z,2.95
2023-09-15T01:03:47.492Z,3.97
2023-09-15T01:06:16.829Z,4.12
2023-09-15T01:08:44.418Z,3.53
2023-09-15T01:11:12.042Z,5.75
2023-09-15T01:13:39.865Z,4.43
2023-09-15T01:16:10.933Z,4.82
2023-09-15T01:19:15.861Z,3.28
2023-09-15T01:22:02.770Z,4.07
2023-09-15T01:24:45.090Z,3.75
2023-09-15T01:27:35.437Z,3.62
2023-09-15T01:30:06.416Z,4.03
2023-09-15T01:32:35.195Z,4.12
2023-09-15T01:35:05.474Z,2.65
2023-09-15T01:37:33.060Z,2.75
2023-09-15T01:40:01.263Z,2.97
2023-09-15T01:42:29.118Z,3.95
2023-09-15T01:44:56.798Z,4.50
2023-09-15T01:47:24.986Z,4.10
2023-09-15T01:49:53.614Z,2.65
2023-09-15T01:52:22.384Z,3.55
2023-09-15T01:54:51.450Z,3.15
2023-09-15T01:57:19.029Z,2.83
2023-09-15T01:59:46.508Z,3.53
2023-09-15T02:02:14.486Z,3.05
2023-09-15T02:04:42.407Z,3.10
2023-09-15T02:07:10.240Z,3.45
2023-09-15T02:09:37.894Z,3.25
2023-09-15T02:12:05.785Z,2.40
2023-09-15T02:14:33.634Z,3.33
2023-09-15T02:17:02.045Z,3.08
2023-09-15T02:19:30.333Z,2.83
2023-09-15T02:22:01.569Z,3.10
2023-09-15T02:24:29.387Z,3.72
2023-09-15T02:26:58.873Z,2.97
2023-09-15T02:29:26.816Z,3.28
2023-09-15T02:31:56.286Z,2.62
2023-09-15T02:34:23.863Z,3.35
2023-09-15T02:36:51.447Z,3.55
2023-09-15T02:39:20.257Z,4.53
2023-09-15T02:41:47.805Z,3.08
2023-09-15T02:44:15.532Z,3.47
2023-09-15T02:46:44.022Z,3.42
2023-09-15T02:49:11.838Z,5.18
2023-09-15T02:51:39.488Z,3.55
2023-09-15T02:54:07.666Z,4.72
2023-09-15T02:56:35.201Z,4.65
2023-09-15T02:59:02.691Z,3.75
2023-09-15T03:01:30.527Z,3.35
2023-09-15T03:03:58.104Z,3.55
2023-09-15T03:06:26.507Z,6.78
2023-09-15T03:08:54.694Z,3.85
2023-09-15T03:11:23.437Z,4.68
2023-09-15T03:13:54.168Z,5.87
2023-09-15T03:16:22.521Z,3.65
2023-09-15T03:18:51.113Z,4.00
2023-09-15T03:21:20.752Z,4.30
2023-09-15T03:23:50.088Z,3.17
2023-09-15T03:26:17.715Z,5.32
2023-09-15T03:28:45.880Z,3.55
2023-09-15T03:31:14.105Z,3.75
2023-09-15T03:33:41.695Z,3.92
2023-09-15T03:36:12.301Z,3.72
2023-09-15T03:38:40.137Z,3.92
2023-09-15T03:41:07.726Z,4.20
2023-09-15T03:43:35.268Z,3.33
2023-09-15T03:46:04.045Z,3.97
2023-09-15T03:48:31.910Z,2.35
2023-09-15T03:50:59.460Z,3.87
2023-09-15T03:53:27.717Z,4.10
2023-09-15T03:55:55.558Z,4.70
2023-09-15T03:58:23.204Z,3.95
2023-09-15T04:00:51.325Z,5.00
2023-09-15T04:03:22.047Z,3.25
2023-09-15T04:05:50.142Z,3.08
2023-09-15T04:08:17.917Z,4.00
2023-09-15T04:10:45.734Z,3.78
2023-09-15T04:13:13.372Z,4.72
2023-09-15T04:15:41.104Z,5.22
2023-09-15T04:18:11.555Z,4.10
2023-09-15T04:20:45.943Z,3.75
2023-09-15T04:23:14.992Z,4.22
2023-09-15T04:25:44.131Z,4.70
2023-09-15T04:28:12.691Z,3.20
2023-09-15T04:30:41.476Z,4.25
2023-09-15T04:33:09.120Z,4.32
2023-09-15T04:35:39.386Z,3.12
2023-09-15T04:38:08.340Z,4.12
2023-09-15T04:40:35.955Z,3.28
2023-09-15T04:43:04.068Z,4.53
2023-09-15T04:45:32.204Z,3.45
2023-09-15T04:48:00.279Z,3.90
2023-09-15T04:50:27.970Z,3.80
2023-09-15T04:52:56.938Z,3.85
2023-09-15T04:55:25.551Z,2.80
2023-09-15T04:57:53.359Z,2.33
2023-09-15T05:00:25.370Z,4.37
2023-09-15T05:02:53.347Z,2.85
2023-09-15T05:05:21.254Z,4.10
2023-09-15T05:07:49.073Z,3.90
2023-09-15T05:10:16.753Z,4.47
2023-09-15T05:12:45.020Z,4.12
2023-09-15T05:15:12.754Z,3.90
2023-09-15T05:17:41.381Z,3.53
2023-09-15T05:20:09.713Z,5.03
2023-09-15T05:22:37.819Z,3.53
2023-09-15T05:25:06.192Z,3.60
2023-09-15T05:27:34.301Z,3.60
2023-09-15T05:30:01.905Z,2.28
2023-09-15T05:32:31.484Z,3.25
2023-09-15T05:35:00.080Z,3.03
2023-09-15T05:37:27.609Z,3.35
2023-09-15T05:39:55.138Z,3.67
2023-09-15T05:42:23.307Z,5.03
2023-09-15T05:44:50.792Z,4.40
2023-09-15T05:47:18.363Z,3.08
2023-09-15T05:49:46.195Z,2.87
2023-09-15T05:52:13.822Z,1.77
2023-09-15T05:54:41.389Z,4.60
2023-09-15T05:57:09.226Z,1.98
2023-09-15T05:59:36.789Z,2.33
2023-09-15T06:02:04.545Z,3.53
2023-09-15T06:04:32.366Z,3.58
2023-09-15T06:07:00.173Z,3.83
2023-09-15T06:09:27.839Z,5.55
2023-09-15T06:11:55.616Z,5.05
2023-09-15T06:14:23.168Z,3.22
2023-09-15T06:16:50.618Z,2.72
2023-09-15T06:19:18.414Z,4.25
2023-09-15T06:21:45.983Z,3.75
2023-09-15T06:24:13.509Z,3.55
2023-09-15T06:26:41.423Z,3.03
2023-09-15T06:29:08.974Z,3.12
2023-09-15T06:31:37.964Z,4.72
2023-09-15T06:34:05.906Z,4.18
2023-09-15T06:36:33.538Z,4.68
2023-09-15T06:39:01.039Z,3.15
2023-09-15T06:41:28.887Z,4.85
2023-09-15T06:43:56.394Z,3.40
2023-09-15T06:46:24.319Z,3.40
2023-09-15T06:48:52.408Z,4.75
2023-09-15T06:51:20.341Z,3.83
2023-09-15T06:53:47.910Z,4.10
2023-09-15T06:56:15.730Z,4.62
2023-09-15T06:58:43.267Z,3.62
2023-09-15T07:01:10.819Z,5.47
2023-09-15T07:03:39.101Z,4.12
2023-09-15T07:06:06.742Z,3.87
2023-09-15T07:08:34.652Z,4.82
2023-09-15T07:11:02.452Z,4.43
2023-09-15T07:13:30.032Z,4.05
2023-09-15T07:15:57.673Z,3.70
2023-09-15T07:18:25.529Z,4.12
2023-09-15T07:20:53.058Z,3.85
2023-09-15T07:23:20.640Z,3.83
2023-09-15T07:25:48.893Z,3.58
2023-09-15T07:28:16.778Z,3.17
2023-09-15T07:30:44.348Z,3.47
2023-09-15T07:33:12.193Z,3.05
2023-09-15T07:35:39.849Z,2.90
2023-09-15T07:38:07.372Z,3.42
2023-09-15T07:40:35.481Z,2.72
2023-09-15T07:43:03.188Z,3.10
2023-09-15T07:45:30.859Z,2.97
2023-09-15T07:47:59.117Z,2.72
2023-09-15T07:50:26.828Z,2.97
2023-09-15T07:52:54.321Z,2.00
2023-09-15T07:55:24.003Z,2.37
2023-09-15T07:57:51.575Z,3.08
2023-09-15T08:00:19.375Z,3.67
2023-09-15T08:02:48.022Z,2.20
2023-09-15T08:05:16.113Z,2.83
2023-09-15T08:07:46.292Z,2.78
2023-09-15T08:10:15.353Z,2.00
2023-09-15T08:12:42.896Z,2.12
2023-09-15T08:15:10.517Z,2.10
2023-09-15T08:17:38.473Z,1.92
2023-09-15T08:20:06.784Z,2.22
2023-09-15T08:22:35.464Z,1.90
2023-09-15T08:25:05.183Z,2.12
2023-09-15T08:27:33.044Z,1.37
2023-09-15T08:30:01.289Z,2.12
2023-09-15T08:32:29.543Z,2.00
2023-09-15T08:34:57.397Z,2.47
2023-09-15T08:37:25.405Z,1.95
2023-09-15T08:39:53.623Z,2.00
2023-09-15T08:42:28.607Z,2.10
2023-09-15T08:44:57.666Z,1.87
2023-09-15T08:47:27.153Z,2.12
2023-09-15T08:49:55.721Z,2.67
2023-09-15T08:52:24.101Z,2.00
2023-09-15T08:54:53.071Z,2.65
2023-09-15T08:57:21.175Z,1.75
2023-09-15T08:59:53.391Z,1.55
2023-09-15T09:02:25.419Z,2.22
2023-09-15T09:04:53.750Z,1.95
2023-09-15T09:07:22.896Z,2.87
2023-09-15T09:09:51.225Z,2.53
2023-09-15T09:12:19.113Z,2.22
2023-09-15T09:14:46.643Z,1.90
2023-09-15T09:17:14.782Z,2.65
2023-09-15T09:19:43.993Z,1.67
2023-09-15T09:22:11.727Z,2.40
2023-09-15T09:24:39.421Z,2.60
2023-09-15T09:27:11.132Z,2.60
2023-09-15T09:29:39.384Z,2.35
2023-09-15T09:32:07.525Z,2.75
2023-09-15T09:34:47.846Z,1.80
2023-09-15T09:37:16.346Z,2.17
2023-09-15T09:39:45.966Z,2.47
2023-09-15T09:42:13.577Z,2.37
2023-09-15T09:44:41.400Z,1.83
2023-09-15T09:47:10.548Z,2.22
2023-09-15T09:49:39.661Z,2.25
2023-09-15T09:52:07.550Z,1.80
2023-09-15T09:54:35.763Z,1.92
2023-09-15T09:57:04.204Z,1.48
2023-09-15T09:59:32.193Z,1.77
2023-09-15T10:01:59.710Z,1.62
2023-09-15T10:04:27.612Z,1.83
2023-09-15T10:06:55.234Z,1.90
2023-09-15T10:09:22.945Z,2.03
2023-09-15T10:11:50.913Z,2.35
2023-09-15T10:14:18.731Z,2.37
2023-09-15T10:16:46.868Z,1.98
2023-09-15T10:19:15.578Z,1.90
2023-09-15T10:21:43.533Z,2.20
2023-09-15T10:24:12.332Z,2.72
2023-09-15T10:26:43.115Z,2.35
2023-09-15T10:29:14.485Z,2.28
2023-09-15T10:31:45.712Z,2.25
2023-09-15T10:34:13.931Z,1.80
2023-09-15T10:36:45.961Z,2.15
2023-09-15T10:39:14.709Z,2.08
2023-09-15T10:41:45.982Z,2.40
2023-09-15T10:44:14.703Z,2.33
2023-09-15T10:46:44.151Z,2.60
2023-09-15T10:49:19.622Z,2.28
2023-09-15T10:51:55.361Z,2.53
2023-09-15T10:54:28.267Z,1.90
2023-09-15T10:56:56.449Z,2.45
2023-09-15T10:59:24.140Z,2.15
2023-09-15T11:01:51.943Z,2.22
2023-09-15T11:04:22.474Z,1.83
2023-09-15T11:06:52.150Z,2.10
2023-09-15T11:09:20.747Z,2.33
2023-09-15T11:11:50.784Z,2.05
2023-09-15T11:14:20.325Z,2.03
2023-09-15T11:16:50.424Z,1.85
2023-09-15T11:19:19.461Z,2.97
2023-09-15T11:21:48.216Z,3.15
2023-09-15T11:24:16.687Z,2.47
2023-09-15T11:26:51.955Z,2.15
2023-09-15T11:29:31.352Z,1.55
2023-09-15T11:31:59.793Z,1.62
2023-09-15T11:34:28.084Z,1.67
2023-09-15T11:37:01.017Z,2.35
2023-09-15T11:39:30.472Z,2.08
2023-09-15T11:41:58.504Z,2.12
2023-09-15T11:44:32.808Z,2.83
2023-09-15T11:47:01.054Z,2.60
2023-09-15T11:49:29.370Z,1.95
2023-09-15T11:51:57.665Z,2.42
2023-09-15T11:54:26.144Z,2.05
2023-09-15T11:56:55.343Z,2.42
2023-09-15T11:59:23.354Z,2.58
2023-09-15T12:01:56.144Z,2.03
2023-09-15T12:04:25.754Z,1.75
2023-09-15T12:06:53.717Z,1.92
2023-09-15T12:09:21.998Z,2.37
2023-09-15T12:11:49.978Z,1.70
2023-09-15T12:14:17.513Z,1.80
2023-09-15T12:16:47.143Z,1.87
2023-09-15T12:19:17.080Z,2.55
2023-09-15T12:21:54.861Z,1.87
2023-09-15T12:24:23.646Z,2.03
2023-09-15T12:26:51.863Z,2.30
2023-09-15T12:29:20.165Z,2.25
2023-09-15T12:31:48.702Z,1.45
2023-09-15T12:34:22.822Z,1.95
2023-09-15T12:36:54.725Z,2.17
2023-09-15T12:39:22.477Z,1.35
2023-09-15T12:42:12.895Z,2.00
2023-09-15T12:44:43.047Z,3.30
2023-09-15T12:47:11.238Z,1.48
2023-09-15T12:49:39.534Z,1.80
2023-09-15T12:52:07.609Z,2.17
2023-09-15T12:54:35.247Z,2.12
2023-09-15T12:57:02.893Z,2.42
2023-09-15T12:59:30.764Z,1.95
2023-09-15T13:01:58.712Z,2.50
2023-09-15T13:04:27.422Z,1.95
2023-09-15T13:06:55.866Z,2.08
2023-09-15T13:09:25.999Z,1.62
2023-09-15T13:11:53.603Z,1.77
2023-09-15T13:14:21.382Z,2.22
2023-09-15T13:16:49.354Z,1.90
2023-09-15T13:19:18.247Z,2.03
2023-09-15T13:21:46.230Z,2.37
2023-09-15T13:24:14.581Z,2.47
2023-09-15T13:26:42.903Z,2.05
2023-09-15T13:29:11.753Z,3.00
2023-09-15T13:31:39.452Z,2.08
2023-09-15T13:34:07.052Z,1.83
2023-09-15T13:36:35.121Z,2.17
2023-09-15T13:39:02.747Z,2.10
2023-09-15T13:41:30.353Z,2.28
2023-09-15T13:43:58.173Z,2.00
2023-09-15T13:46:25.723Z,1.48
2023-09-15T13:48:53.283Z,2.15
2023-09-15T13:51:28.940Z,2.62
2023-09-15T13:54:00.222Z,2.10
2023-09-15T13:56:28.038Z,2.37
2023-09-15T13:58:55.754Z,1.62
2023-09-15T14:01:23.789Z,2.37
2023-09-15T14:03:53.280Z,2.60
2023-09-15T14:06:21.096Z,2.50
2023-09-15T14:08:48.849Z,2.28
2023-09-15T14:11:16.835Z,2.17
2023-09-15T14:13:44.452Z,2.42
2023-09-15T14:16:12.665Z,1.80
2023-09-15T14:18:40.494Z,2.55
2023-09-15T14:21:08.199Z,1.67
2023-09-15T14:23:35.668Z,2.53
2023-09-15T14:26:03.699Z,2.55
2023-09-15T14:28:31.301Z,1.60
2023-09-15T14:31:03.675Z,1.60
2023-09-15T14:33:31.626Z,1.90
2023-09-15T14:35:59.419Z,1.95
2023-09-15T14:38:26.998Z,1.92
2023-09-15T14:40:54.787Z,2.05
2023-09-15T14:43:22.399Z,1.95
2023-09-15T14:45:49.993Z,1.75
2023-09-15T14:48:18.229Z,2.12
2023-09-15T14:50:45.786Z,2.00
2023-09-15T14:53:13.391Z,1.65
2023-09-15T14:55:41.264Z,2.28
2023-09-15T14:58:08.776Z,1.95
2023-09-15T15:00:36.447Z,1.87
2023-09-15T15:03:05.016Z,2.25
2023-09-15T15:05:32.765Z,1.35
2023-09-15T15:08:00.820Z,1.90
2023-09-15T15:10:29.050Z,1.95
2023-09-15T15:12:57.268Z,1.70
2023-09-15T15:15:24.951Z,1.85
2023-09-15T15:17:52.892Z,1.87
2023-09-15T15:20:20.460Z,2.45
2023-09-15T15:22:48.027Z,2.55
2023-09-15T15:25:15.941Z,2.42
2023-09-15T15:27:44.142Z,2.72
2023-09-15T15:30:12.186Z,2.10
2023-09-15T15:32:41.126Z,2.05
2023-09-15T15:35:09.049Z,1.83
2023-09-15T15:37:36.848Z,1.62
2023-09-15T15:40:04.945Z,2.62
2023-09-15T15:42:34.710Z,2.25
2023-09-15T15:45:02.417Z,1.90
2023-09-15T15:47:30.267Z,1.98
2023-09-15T15:49:58.006Z,1.90
2023-09-15T15:52:25.725Z,2.03
2023-09-15T15:54:53.524Z,1.83
2023-09-15T15:57:22.323Z,2.08
2023-09-15T15:59:51.199Z,2.12
2023-09-15T16:02:19.461Z,2.50
2023-09-15T16:04:48.606Z,1.85
2023-09-15T16:07:16.215Z,1.60
2023-09-15T16:09:43.823Z,2.05
2023-09-15T16:12:11.652Z,1.98
2023-09-15T16:14:39.254Z,2.08
2023-09-15T16:17:06.861Z,2.55
2023-09-15T16:19:34.811Z,1.90
2023-09-15T16:22:04.663Z,1.80
2023-09-15T16:24:32.289Z,3.15
2023-09-15T16:27:00.097Z,2.35
2023-09-15T16:29:27.810Z,1.95
2023-09-15T16:31:55.450Z,1.90
2023-09-15T16:34:23.270Z,1.92
2023-09-15T16:36:50.936Z,2.42
2023-09-15T16:39:18.578Z,1.98
2023-09-15T16:41:46.396Z,2.17
2023-09-15T16:44:13.988Z,2.33
2023-09-15T16:46:41.674Z,2.03
2023-09-15T16:49:09.597Z,1.62
2023-09-15T16:51:37.228Z,1.40
2023-09-15T16:54:04.848Z,2.37
2023-09-15T16:56:32.758Z,1.92
2023-09-15T16:59:00.609Z,2.70
2023-09-15T17:01:28.143Z,2.55
2023-09-15T17:03:56.065Z,2.25
2023-09-15T17:06:23.874Z,3.65
2023-09-15T17:08:51.404Z,2.55
2023-09-15T17:11:19.457Z,1.62
2023-09-15T17:13:47.053Z,2.65
2023-09-15T17:16:15.269Z,2.75
2023-09-15T17:18:43.093Z,2.62
2023-09-15T17:21:11.166Z,2.00
2023-09-15T17:23:38.859Z,3.53
2023-09-15T17:26:10.018Z,2.60
2023-09-15T17:28:37.651Z,2.80
2023-09-15T17:31:05.171Z,2.87
2023-09-15T17:33:33.158Z,3.83
2023-09-15T17:36:01.417Z,3.33
2023-09-15T17:38:29.080Z,3.05
2023-09-15T17:40:57.731Z,2.90
2023-09-15T17:43:25.599Z,2.95
2023-09-15T17:45:53.673Z,2.17
2023-09-15T17:48:21.676Z,2.62
2023-09-15T17:50:49.745Z,2.45
2023-09-15T17:53:17.478Z,3.05
2023-09-15T17:55:45.379Z,2.62
2023-09-15T17:58:13.395Z,2.97
2023-09-15T18:00:41.219Z,1.65
2023-09-15T18:03:09.290Z,1.87
2023-09-15T18:05:37.720Z,1.65
2023-09-15T18:08:05.407Z,2.15
2023-09-15T18:10:33.249Z,2.22
2023-09-15T18:13:01.136Z,1.87
2023-09-15T18:15:28.925Z,1.67
2023-09-15T18:17:56.919Z,2.50
2023-09-15T18:20:24.737Z,2.42
2023-09-15T18:22:52.418Z,2.05
2023-09-15T18:25:21.600Z,2.50
2023-09-15T18:27:49.247Z,2.05
2023-09-15T18:30:16.986Z,1.83
2023-09-15T18:32:46.744Z,2.72
2023-09-15T18:35:14.511Z,1.87
2023-09-15T18:37:42.313Z,2.28
2023-09-15T18:40:10.542Z,2.20
2023-09-15T18:42:39.022Z,2.30
2023-09-15T18:45:07.664Z,1.87
2023-09-15T18:47:35.698Z,2.22
2023-09-15T18:50:06.182Z,2.33
2023-09-15T18:52:36.443Z,2.60
2023-09-15T18:55:04.896Z,2.42
2023-09-15T18:57:33.356Z,3.00
2023-09-15T19:00:07.190Z,2.75
2023-09-15T19:02:37.683Z,2.92
2023-09-15T19:05:05.807Z,3.03
2023-09-15T19:07:33.464Z,2.00
2023-09-15T19:10:04.005Z,2.12
2023-09-15T19:12:31.915Z,2.17
2023-09-15T19:15:00.645Z,1.92
2023-09-15T19:17:32.746Z,2.28
2023-09-15T19:20:01.707Z,1.40
2023-09-15T19:22:29.634Z,1.90
2023-09-15T19:24:57.298Z,2.65
2023-09-15T19:27:24.903Z,1.67
2023-09-15T19:29:53.050Z,2.10
2023-09-15T19:32:20.646Z,1.75
2023-09-15T19:34:49.134Z,1.40
2023-09-15T19:37:18.912Z,1.98
2023-09-15T19:39:46.666Z,1.75
2023-09-15T19:42:14.281Z,1.60
2023-09-15T19:44:42.333Z,1.67
2023-09-15T19:47:10.022Z,3.00
2023-09-15T19:49:38.095Z,2.72
2023-09-15T19:52:05.945Z,2.33
2023-09-15T19:54:33.573Z,1.62
2023-09-15T19:57:01.428Z,2.00
2023-09-15T19:59:29.443Z,1.65
2023-09-15T20:01:57.101Z,1.98
2023-09-15T20:04:25.156Z,1.70
2023-09-15T20:06:52.918Z,1.58
2023-09-15T20:09:20.737Z,1.77
2023-09-15T20:11:48.660Z,2.42
2023-09-15T20:14:16.381Z,1.33
2023-09-15T20:16:44.330Z,2.10
2023-09-15T20:19:17.156Z,1.40
2023-09-15T20:21:44.776Z,1.85
2023-09-15T20:24:12.900Z,1.75
2023-09-15T20:26:40.632Z,1.62
2023-09-15T20:29:08.166Z,1.30
2023-09-15T20:31:36.021Z,1.17
2023-09-15T20:34:06.409Z,1.10
2023-09-15T20:36:34.029Z,1.52
2023-09-15T20:39:01.850Z,1.52
2023-09-15T20:41:29.496Z,1.27
2023-09-15T20:43:57.560Z,1.75
2023-09-15T20:46:28.560Z,1.30
2023-09-15T20:48:56.294Z,1.50
2023-09-15T20:51:24.135Z,1.27
2023-09-15T20:53:53.070Z,1.55
2023-09-15T20:56:20.620Z,1.50
2023-09-15T20:58:48.490Z,2.37
2023-09-15T21:01:16.552Z,1.48
2023-09-15T21:03:44.289Z,2.10
2023-09-15T21:06:11.888Z,1.52
2023-09-15T21:08:39.727Z,1.37
2023-09-15T21:11:07.241Z,1.40
2023-09-15T21:13:36.482Z,1.00
2023-09-15T21:16:05.860Z,1.37
2023-09-15T21:18:33.498Z,1.62
2023-09-15T21:21:01.284Z,1.75
2023-09-15T21:23:29.502Z,1.62
2023-09-15T21:25:57.060Z,1.95
2023-09-15T21:28:24.983Z,1.52
2023-09-15T21:30:53.267Z,1.75
2023-09-15T21:33:21.055Z,1.33
2023-09-15T21:35:49.335Z,2.15
2023-09-15T21:38:18.059Z,1.87
2023-09-15T21:40:50.823Z,1.77
2023-09-15T21:43:18.766Z,1.62
2023-09-15T21:45:46.887Z,1.60
2023-09-15T21:48:14.641Z,1.37
2023-09-15T21:50:42.458Z,1.73
2023-09-15T21:53:09.977Z,1.45
2023-09-15T21:55:38.464Z,1.60
2023-09-15T21:58:06.497Z,1.45
2023-09-15T22:00:39.862Z,0.95
2023-09-15T22:03:08.109Z,1.37
2023-09-15T22:05:35.892Z,1.25
2023-09-15T22:08:04.470Z,1.52
2023-09-15T22:10:33.446Z,1.15
2023-09-15T22:13:01.128Z,1.58
2023-09-15T22:15:29.567Z,1.62
2023-09-15T22:17:57.596Z,1.02
2023-09-15T22:20:28.204Z,1.60
2023-09-15T22:22:56.808Z,0.80
2023-09-15T22:25:28.169Z,1.25
2023-09-15T22:27:55.751Z,1.87
2023-09-15T22:30:23.588Z,1.52
2023-09-15T22:32:51.679Z,1.62
2023-09-15T22:35:19.230Z,1.20
2023-09-15T22:37:47.449Z,1.48
2023-09-15T22:40:15.449Z,1.67
2023-09-15T22:42:45.189Z,1.65
2023-09-15T22:45:17.785Z,2.17
2023-09-15T22:47:47.188Z,1.60
2023-09-15T22:50:15.207Z,0.90
2023-09-15T22:52:44.639Z,1.55
2023-09-15T22:55:18.207Z,1.42
2023-09-15T22:57:47.001Z,1.17
2023-09-15T23:00:16.305Z,1.30
2023-09-15T23:02:45.602Z,1.50
2023-09-15T23:05:13.254Z,1.55
2023-09-15T23:07:41.063Z,1.37
2023-09-15T23:10:09.350Z,1.08
2023-09-15T23:12:37.071Z,1.58
2023-09-15T23:15:06.757Z,1.12
2023-09-15T23:17:34.563Z,1.10
2023-09-15T23:20:02.140Z,1.17
2023-09-15T23:22:31.369Z,1.27
2023-09-15T23:24:58.986Z,1.15
2023-09-15T23:27:29.037Z,1.87
2023-09-15T23:29:57.707Z,1.45
2023-09-15T23:32:25.300Z,1.55
2023-09-15T23:34:53.040Z,1.87
2023-09-15T23:37:21.190Z,1.30
2023-09-15T23:39:49.524Z,0.98
2023-09-15T23:42:17.165Z,2.08
2023-09-15T23:44:44.933Z,1.35
2023-09-15T23:47:12.483Z,1.10
2023-09-15T23:49:40.089Z,0.93
2023-09-15T23:52:07.803Z,0.95
2023-09-15T23:54:35.325Z,1.55
2023-09-15T23:57:03.005Z,1.33
2023-09-15T23:59:30.862Z,1.30
